Time;durP1;ratioP1;P1;durP2;ratioP2;P2;SDS_P1;SDS_P2;PMS_P1;PMS_P2;Temp;Humidity;BMP_temperature;BMP_pressure;BME280_temperature;BME280_humidity;BME280_pressure;Samples;Min_cycle;Max_cycle;Signal;HPM_P1;HPM_P2
2022/08/21 00:00:49;;;;;;;4.90;2.05;;;;;;;;;;5108129;27;20045;-80
2022/08/21 00:03:35;;;;;;;4.55;2.05;;;;;;;;;;5107933;27;20038;-79
2022/08/21 00:06:23;;;;;;;3.13;1.90;;;;;;;;;;5122577;27;20031;-79
2022/08/21 00:09:09;;;;;;;3.00;1.90;;;;;;;;;;5108949;27;20056;-80
2022/08/21 00:11:55;;;;;;;3.85;2.03;;;;;;;;;;5108758;27;20034;-79
2022/08/21 00:14:40;;;;;;;4.50;2.22;;;;;;;;;;5107380;27;20031;-79
2022/08/21 00:17:26;;;;;;;4.32;2.15;;;;;;;;;;5123677;27;20053;-79
2022/08/21 00:20:13;;;;;;;3.20;1.80;;;;;;;;;;5107784;27;20060;-80
2022/08/21 00:22:58;;;;;;;5.43;2.58;;;;;;;;;;5107635;27;20070;-80
2022/08/21 00:25:44;;;;;;;3.50;1.80;;;;;;;;;;5122913;27;20046;-79
2022/08/21 00:28:30;;;;;;;2.83;1.80;;;;;;;;;;5109269;27;20061;-79
2022/08/21 00:31:16;;;;;;;2.95;1.63;;;;;;;;;;5108074;27;20608;-79
2022/08/21 00:34:02;;;;;;;2.95;1.48;;;;;;;;;;5108107;27;20055;-79
2022/08/21 00:36:48;;;;;;;4.28;1.88;;;;;;;;;;5122723;27;20060;-79
2022/08/21 00:39:35;;;;;;;3.50;1.42;;;;;;;;;;5136543;27;20039;-80
2022/08/21 00:42:21;;;;;;;3.85;1.88;;;;;;;;;;5107813;27;20034;-79
2022/08/21 00:45:07;;;;;;;3.88;1.73;;;;;;;;;;5122290;27;20035;-79
2022/08/21 00:47:54;;;;;;;3.85;1.75;;;;;;;;;;5122681;27;20079;-79
2022/08/21 00:50:44;;;;;;;5.50;2.15;;;;;;;;;;5108360;27;20049;-80
2022/08/21 00:53:30;;;;;;;3.60;1.80;;;;;;;;;;5122760;27;20038;-79
2022/08/21 00:56:16;;;;;;;7.07;2.38;;;;;;;;;;5123341;27;20059;-80
2022/08/21 00:59:02;;;;;;;3.80;1.90;;;;;;;;;;5106271;27;20118;-78
2022/08/21 01:01:48;;;;;;;4.15;2.03;;;;;;;;;;5122411;27;20519;-78
2022/08/21 01:04:34;;;;;;;3.40;1.88;;;;;;;;;;5108011;27;20035;-79
2022/08/21 01:07:19;;;;;;;4.78;1.80;;;;;;;;;;5108144;27;20039;-80
2022/08/21 01:10:06;;;;;;;4.40;1.90;;;;;;;;;;5123315;27;20050;-79
2022/08/21 01:12:55;;;;;;;4.07;1.80;;;;;;;;;;5112365;27;20081;-79
2022/08/21 01:15:43;;;;;;;2.42;1.45;;;;;;;;;;5112059;27;20070;-79
2022/08/21 01:18:29;;;;;;;3.33;1.60;;;;;;;;;;5111599;27;20035;-79
2022/08/21 01:21:17;;;;;;;3.88;1.80;;;;;;;;;;5124791;27;20039;-79
2022/08/21 01:24:03;;;;;;;3.00;1.48;;;;;;;;;;5111562;27;20421;-79
2022/08/21 01:26:49;;;;;;;4.22;1.92;;;;;;;;;;5139732;27;20031;-80
2022/08/21 01:29:39;;;;;;;4.40;1.95;;;;;;;;;;5112992;27;20113;-79
2022/08/21 01:32:25;;;;;;;3.60;1.92;;;;;;;;;;5125169;27;20095;-79
2022/08/21 01:35:11;;;;;;;4.38;2.13;;;;;;;;;;5111156;27;20039;-79
2022/08/21 01:37:57;;;;;;;3.97;1.90;;;;;;;;;;5110936;27;20039;-79
2022/08/21 01:40:43;;;;;;;5.20;2.75;;;;;;;;;;5124920;27;20424;-80
2022/08/21 01:43:29;;;;;;;4.07;1.77;;;;;;;;;;5111329;27;20132;-80
2022/08/21 01:46:15;;;;;;;3.50;1.73;;;;;;;;;;5110969;27;20038;-79
2022/08/21 01:49:01;;;;;;;5.13;2.25;;;;;;;;;;5125514;27;20038;-79
2022/08/21 01:51:46;;;;;;;3.47;2.00;;;;;;;;;;5110804;27;20053;-79
2022/08/21 01:54:32;;;;;;;4.60;1.92;;;;;;;;;;5110829;27;20531;-79
2022/08/21 01:57:18;;;;;;;6.03;2.47;;;;;;;;;;5125498;27;20031;-79
2022/08/21 02:00:05;;;;;;;4.22;1.73;;;;;;;;;;5126259;27;20041;-79
2022/08/21 02:02:51;;;;;;;3.83;2.10;;;;;;;;;;5110764;27;20041;-79
2022/08/21 02:05:37;;;;;;;4.13;1.67;;;;;;;;;;5110480;27;20500;-79
2022/08/21 02:08:23;;;;;;;6.53;2.20;;;;;;;;;;5124415;27;20042;-79
2022/08/21 02:11:09;;;;;;;7.68;2.67;;;;;;;;;;5112074;27;20143;-79
2022/08/21 02:13:55;;;;;;;3.92;1.80;;;;;;;;;;5123751;27;20038;-79
2022/08/21 02:16:41;;;;;;;4.95;2.25;;;;;;;;;;5110553;27;20408;-79
2022/08/21 02:19:27;;;;;;;3.92;2.15;;;;;;;;;;5110815;27;20416;-79
2022/08/21 02:22:13;;;;;;;4.45;1.75;;;;;;;;;;5109949;27;20054;-79
2022/08/21 02:24:59;;;;;;;5.63;2.53;;;;;;;;;;5109204;27;20042;-80
2022/08/21 02:27:47;;;;;;;4.20;2.00;;;;;;;;;;5124942;27;20066;-79
2022/08/21 02:30:37;;;;;;;5.03;2.03;;;;;;;;;;5124682;27;20035;-79
2022/08/21 02:33:25;;;;;;;4.05;1.80;;;;;;;;;;5109753;27;20122;-79
2022/08/21 02:36:11;;;;;;;4.57;2.00;;;;;;;;;;5125858;27;20075;-79
2022/08/21 02:38:57;;;;;;;5.07;2.08;;;;;;;;;;5109549;27;20047;-79
2022/08/21 02:41:43;;;;;;;4.63;2.22;;;;;;;;;;5110362;27;20493;-79
2022/08/21 02:44:29;;;;;;;5.20;2.20;;;;;;;;;;5109067;27;20031;-79
2022/08/21 02:47:15;;;;;;;3.15;2.05;;;;;;;;;;5109647;27;20023;-79
2022/08/21 02:50:00;;;;;;;4.18;2.38;;;;;;;;;;5110221;27;20047;-79
2022/08/21 02:52:46;;;;;;;3.35;1.38;;;;;;;;;;5123569;27;20031;-79
2022/08/21 02:55:32;;;;;;;4.28;1.98;;;;;;;;;;5108684;27;20591;-78
2022/08/21 02:58:21;;;;;;;4.10;1.88;;;;;;;;;;5108483;27;20034;-79
2022/08/21 03:01:09;;;;;;;5.45;2.00;;;;;;;;;;5109732;27;20443;-79
2022/08/21 03:03:54;;;;;;;5.20;1.83;;;;;;;;;;5108674;27;20041;-79
2022/08/21 03:06:40;;;;;;;5.75;2.10;;;;;;;;;;5124190;27;20046;-79
2022/08/21 03:09:26;;;;;;;4.85;2.00;;;;;;;;;;5109498;27;20031;-80
2022/08/21 03:12:12;;;;;;;5.20;1.83;;;;;;;;;;5122581;27;20049;-79
2022/08/21 03:14:58;;;;;;;7.22;2.67;;;;;;;;;;5123779;27;20034;-79
2022/08/21 03:17:44;;;;;;;5.07;2.17;;;;;;;;;;5109306;27;20246;-79
2022/08/21 03:20:30;;;;;;;4.05;1.50;;;;;;;;;;5108476;27;20031;-79
2022/08/21 03:23:17;;;;;;;6.10;2.05;;;;;;;;;;5108692;27;20050;-80
2022/08/21 03:26:03;;;;;;;4.15;1.70;;;;;;;;;;5123616;27;20039;-80
2022/08/21 03:28:50;;;;;;;5.43;2.03;;;;;;;;;;5123137;27;20046;-80
2022/08/21 03:31:36;;;;;;;5.53;1.70;;;;;;;;;;5109236;27;20031;-79
2022/08/21 03:34:21;;;;;;;3.72;1.75;;;;;;;;;;5123068;27;20046;-79
2022/08/21 03:37:07;;;;;;;3.97;1.98;;;;;;;;;;5109286;27;20049;-80
2022/08/21 03:39:53;;;;;;;4.90;2.13;;;;;;;;;;5110280;27;20035;-80
2022/08/21 03:42:39;;;;;;;5.43;2.03;;;;;;;;;;5123460;27;20031;-79
2022/08/21 03:45:25;;;;;;;5.30;2.30;;;;;;;;;;5108438;27;20167;-79
2022/08/21 03:48:11;;;;;;;4.43;2.15;;;;;;;;;;5110291;27;20042;-80
2022/08/21 03:50:57;;;;;;;5.72;1.98;;;;;;;;;;5109195;27;20046;-79
2022/08/21 03:53:42;;;;;;;3.88;1.98;;;;;;;;;;5123261;27;20571;-79
2022/08/21 03:56:28;;;;;;;3.85;1.85;;;;;;;;;;5108474;27;20035;-79
2022/08/21 03:59:14;;;;;;;3.70;1.88;;;;;;;;;;5123796;27;20040;-80
2022/08/21 04:02:01;;;;;;;4.28;2.10;;;;;;;;;;5121444;27;20035;-79
2022/08/21 04:04:47;;;;;;;4.97;1.73;;;;;;;;;;5107867;27;20031;-79
2022/08/21 04:07:33;;;;;;;3.38;1.77;;;;;;;;;;5108054;27;20042;-79
2022/08/21 04:10:19;;;;;;;3.33;1.50;;;;;;;;;;5108229;27;20068;-79
2022/08/21 04:13:05;;;;;;;3.33;1.85;;;;;;;;;;5108349;27;20034;-80
2022/08/21 04:15:51;;;;;;;3.33;1.80;;;;;;;;;;5122496;27;20044;-79
2022/08/21 04:18:37;;;;;;;3.90;1.88;;;;;;;;;;5108718;27;20092;-79
2022/08/21 04:21:23;;;;;;;3.70;2.03;;;;;;;;;;5109566;27;20458;-80
2022/08/21 04:24:09;;;;;;;3.80;1.50;;;;;;;;;;5107968;27;20047;-80
2022/08/21 04:26:55;;;;;;;3.38;1.63;;;;;;;;;;5122031;27;20079;-79
2022/08/21 04:29:41;;;;;;;4.65;1.83;;;;;;;;;;5108052;27;20035;-79
2022/08/21 04:32:27;;;;;;;2.75;1.33;;;;;;;;;;5122870;27;20045;-79
2022/08/21 04:35:13;;;;;;;4.13;1.73;;;;;;;;;;5108766;27;20121;-79
2022/08/21 04:37:59;;;;;;;4.88;2.05;;;;;;;;;;5107579;27;20038;-79
2022/08/21 04:40:45;;;;;;;3.95;2.10;;;;;;;;;;5107943;27;20039;-79
2022/08/21 04:43:31;;;;;;;3.95;1.70;;;;;;;;;;5107231;27;20064;-79
2022/08/21 04:46:18;;;;;;;4.47;1.88;;;;;;;;;;5110289;27;20034;-80
2022/08/21 04:49:04;;;;;;;6.07;1.65;;;;;;;;;;5126641;27;20046;-79
2022/08/21 04:51:50;;;;;;;4.18;2.13;;;;;;;;;;5112024;27;20088;-80
2022/08/21 04:54:36;;;;;;;4.22;1.75;;;;;;;;;;5112593;27;20050;-79
2022/08/21 04:57:22;;;;;;;5.20;2.03;;;;;;;;;;5126356;27;20042;-79
2022/08/21 05:00:10;;;;;;;3.03;1.50;;;;;;;;;;5126688;27;20038;-80
2022/08/21 05:02:58;;;;;;;4.30;1.55;;;;;;;;;;5111507;27;20517;-79
2022/08/21 05:05:44;;;;;;;3.47;1.70;;;;;;;;;;5126345;27;20030;-79
2022/08/21 05:08:30;;;;;;;3.72;2.00;;;;;;;;;;5111321;27;20038;-80
2022/08/21 05:11:15;;;;;;;4.07;1.88;;;;;;;;;;5112942;27;20074;-81
2022/08/21 05:14:01;;;;;;;4.18;1.88;;;;;;;;;;5112247;27;20038;-81
2022/08/21 05:16:47;;;;;;;2.95;1.42;;;;;;;;;;5111547;27;20049;-81
2022/08/21 05:19:33;;;;;;;3.35;1.60;;;;;;;;;;5126738;27;20035;-82
2022/08/21 05:22:24;;;;;;;3.08;1.55;;;;;;;;;;5110249;27;20042;-81
2022/08/21 05:25:09;;;;;;;2.92;1.48;;;;;;;;;;5111984;27;20043;-81
2022/08/21 05:27:56;;;;;;;3.15;1.70;;;;;;;;;;5112550;27;20039;-82
2022/08/21 05:30:42;;;;;;;3.55;1.15;;;;;;;;;;5111346;27;20121;-81
2022/08/21 05:33:28;;;;;;;3.80;1.60;;;;;;;;;;5110687;27;20037;-82
2022/08/21 05:36:13;;;;;;;4.38;2.10;;;;;;;;;;5111396;27;20031;-81
2022/08/21 05:38:59;;;;;;;3.58;1.42;;;;;;;;;;5124946;27;20500;-81
2022/08/21 05:41:45;;;;;;;3.50;1.30;;;;;;;;;;5110270;27;20027;-81
2022/08/21 05:44:31;;;;;;;2.80;1.30;;;;;;;;;;5111521;27;20117;-81
2022/08/21 05:47:17;;;;;;;3.22;1.55;;;;;;;;;;5123878;27;20031;-81
2022/08/21 05:50:03;;;;;;;5.22;1.48;;;;;;;;;;5108587;27;20538;-81
2022/08/21 05:52:49;;;;;;;2.65;1.38;;;;;;;;;;5122278;27;20035;-81
2022/08/21 05:55:36;;;;;;;3.78;1.58;;;;;;;;;;5111615;27;20034;-81
2022/08/21 05:58:22;;;;;;;4.75;1.40;;;;;;;;;;5111909;27;20142;-81
2022/08/21 06:01:08;;;;;;;7.18;1.63;;;;;;;;;;5124985;27;20453;-81
2022/08/21 06:03:54;;;;;;;4.63;1.77;;;;;;;;;;5110296;27;20035;-81
2022/08/21 06:06:40;;;;;;;3.95;1.38;;;;;;;;;;5110773;27;20082;-81
2022/08/21 06:09:26;;;;;;;3.90;1.45;;;;;;;;;;5111023;27;20030;-81
2022/08/21 06:12:12;;;;;;;5.25;1.73;;;;;;;;;;5109773;27;20138;-81
2022/08/21 06:14:57;;;;;;;3.08;1.67;;;;;;;;;;5125769;27;20062;-81
2022/08/21 06:17:43;;;;;;;3.38;1.42;;;;;;;;;;5104179;27;20031;-81
2022/08/21 06:20:09;;;;;;;5.35;1.73;;;;;;;;;;5102890;27;20137;-81
2022/08/21 06:22:35;;;;;;;3.17;1.42;;;;;;;;;;5101859;27;20030;-83
2022/08/21 06:25:00;;;;;;;4.60;1.90;;;;;;;;;;5081887;27;20404;-85
2022/08/21 06:27:26;;;;;;;4.70;1.40;;;;;;;;;;5082881;27;20042;-86
2022/08/21 06:29:51;;;;;;;3.58;1.75;;;;;;;;;;5099876;27;20133;-84
2022/08/21 06:32:17;;;;;;;4.65;1.67;;;;;;;;;;5082325;27;20416;-86
2022/08/21 06:34:42;;;;;;;4.55;1.88;;;;;;;;;;5082351;27;20054;-87
2022/08/21 06:37:08;;;;;;;7.18;2.20;;;;;;;;;;5082562;27;20061;-89
2022/08/21 06:39:33;;;;;;;12.20;2.50;;;;;;;;;;5099339;27;20062;-87
2022/08/21 06:41:59;;;;;;;15.13;2.42;;;;;;;;;;5083274;27;20119;-86
2022/08/21 06:44:25;;;;;;;4.88;2.05;;;;;;;;;;5082566;27;20028;-86
2022/08/21 06:46:51;;;;;;;4.97;1.90;;;;;;;;;;5065973;27;20046;-86
2022/08/21 06:49:17;;;;;;;8.75;2.00;;;;;;;;;;5064370;27;20031;-87
2022/08/21 06:51:42;;;;;;;6.15;1.60;;;;;;;;;;5092176;27;20042;-87
2022/08/21 06:54:08;;;;;;;5.53;1.80;;;;;;;;;;5102156;27;20030;-87
2022/08/21 06:56:36;;;;;;;7.70;2.25;;;;;;;;;;5102738;27;20042;-87
2022/08/21 06:59:02;;;;;;;7.47;1.90;;;;;;;;;;5085449;27;20054;-86
2022/08/21 07:01:27;;;;;;;5.38;1.63;;;;;;;;;;5084953;27;20081;-86
2022/08/21 07:03:53;;;;;;;3.58;1.95;;;;;;;;;;5085506;27;20155;-86
2022/08/21 07:06:18;;;;;;;3.50;1.70;;;;;;;;;;5085270;27;20413;-87
2022/08/21 07:08:43;;;;;;;5.50;1.45;;;;;;;;;;5084875;27;20087;-86
2022/08/21 07:11:12;;;;;;;4.20;1.92;;;;;;;;;;5101962;27;20034;-86
2022/08/21 07:13:37;;;;;;;4.80;2.30;;;;;;;;;;5102577;27;20031;-87
2022/08/21 07:16:03;;;;;;;3.30;1.95;;;;;;;;;;5084704;27;20035;-86
2022/08/21 07:18:28;;;;;;;6.05;3.13;;;;;;;;;;5102343;27;20473;-87
2022/08/21 07:20:54;;;;;;;6.28;3.42;;;;;;;;;;5084934;27;20058;-87
2022/08/21 07:23:26;;;;;;;7.13;3.60;;;;;;;;;;5101637;27;20121;-87
2022/08/21 07:25:54;;;;;;;7.60;4.22;;;;;;;;;;5086751;27;20038;-86
2022/08/21 07:28:23;;;;;;;7.53;3.95;;;;;;;;;;5101805;27;20031;-87
2022/08/21 07:30:52;;;;;;;7.75;4.53;;;;;;;;;;5102041;27;20038;-88
2022/08/21 07:33:17;;;;;;;7.55;4.28;;;;;;;;;;5085101;27;20061;-87
2022/08/21 07:35:43;;;;;;;9.48;5.18;;;;;;;;;;5085048;27;20038;-87
2022/08/21 07:38:11;;;;;;;7.93;4.10;;;;;;;;;;5083928;27;20484;-86
2022/08/21 07:40:39;;;;;;;10.52;3.75;;;;;;;;;;5095235;27;20074;-86
2022/08/21 07:43:08;;;;;;;7.72;4.50;;;;;;;;;;5081603;27;20038;-86
2022/08/21 07:45:33;;;;;;;6.63;3.60;;;;;;;;;;5064569;27;20049;-87
2022/08/21 07:47:59;;;;;;;7.43;3.83;;;;;;;;;;5080978;27;20062;-86
2022/08/21 07:50:24;;;;;;;7.28;3.75;;;;;;;;;;5081433;27;20042;-86
2022/08/21 07:52:53;;;;;;;6.57;3.13;;;;;;;;;;5084635;27;20035;-86
2022/08/21 07:55:19;;;;;;;7.15;3.05;;;;;;;;;;5084570;27;20515;-86
2022/08/21 07:57:45;;;;;;;6.38;3.20;;;;;;;;;;5084193;27;20034;-87
2022/08/21 08:00:13;;;;;;;7.18;3.38;;;;;;;;;;5084468;27;20473;-87
2022/08/21 08:02:39;;;;;;;5.95;3.20;;;;;;;;;;5101691;27;20033;-86
2022/08/21 08:05:07;;;;;;;6.57;3.28;;;;;;;;;;5084480;27;20035;-86
2022/08/21 08:07:33;;;;;;;5.57;2.47;;;;;;;;;;5084587;27;20049;-86
2022/08/21 08:09:58;;;;;;;4.93;2.60;;;;;;;;;;5101504;27;20034;-86
2022/08/21 08:12:28;;;;;;;5.55;3.17;;;;;;;;;;5100634;27;20026;-87
2022/08/21 08:14:56;;;;;;;4.72;2.08;;;;;;;;;;5102101;27;20035;-87
2022/08/21 08:17:23;;;;;;;4.72;2.13;;;;;;;;;;5080931;27;20570;-87
2022/08/21 08:19:49;;;;;;;4.18;2.03;;;;;;;;;;5080391;28;20039;-87
2022/08/21 08:22:24;;;;;;;4.32;2.53;;;;;;;;;;5080500;27;20041;-86
2022/08/21 08:24:50;;;;;;;4.57;2.17;;;;;;;;;;5080947;27;20039;-87
2022/08/21 08:27:16;;;;;;;3.45;1.63;;;;;;;;;;5064053;28;20027;-87
2022/08/21 08:29:42;;;;;;;5.47;2.90;;;;;;;;;;5081157;28;20058;-87
2022/08/21 08:32:07;;;;;;;4.20;1.52;;;;;;;;;;5064012;28;20035;-87
2022/08/21 08:34:36;;;;;;;5.78;1.55;;;;;;;;;;5064382;28;20039;-87
2022/08/21 08:37:02;;;;;;;3.63;1.38;;;;;;;;;;5081113;28;20587;-87
2022/08/21 08:39:28;;;;;;;3.17;1.50;;;;;;;;;;5097372;28;20042;-87
2022/08/21 08:41:59;;;;;;;4.00;1.50;;;;;;;;;;5080679;28;20470;-87
2022/08/21 08:44:24;;;;;;;6.15;2.00;;;;;;;;;;5064370;28;20038;-87
2022/08/21 08:46:50;;;;;;;3.83;1.52;;;;;;;;;;5064203;28;20027;-87
2022/08/21 08:49:15;;;;;;;5.35;1.60;;;;;;;;;;5063855;28;20456;-87
2022/08/21 08:51:54;;;;;;;5.18;1.20;;;;;;;;;;5114270;28;20038;-87
2022/08/21 08:54:37;;;;;;;3.38;1.15;;;;;;;;;;5063924;28;20089;-87
2022/08/21 08:57:03;;;;;;;5.88;1.50;;;;;;;;;;5080519;28;20035;-87
2022/08/21 08:59:50;;;;;;;3.50;1.42;;;;;;;;;;5063780;28;20404;-87
2022/08/21 09:02:16;;;;;;;4.18;1.23;;;;;;;;;;5063704;27;20027;-87
2022/08/21 09:04:42;;;;;;;4.22;2.00;;;;;;;;;;5080787;28;20084;-87
2022/08/21 09:07:16;;;;;;;4.03;1.35;;;;;;;;;;5063174;28;20443;-85
2022/08/21 09:10:07;;;;;;;3.33;1.33;;;;;;;;;;5064086;28;20031;-86
2022/08/21 09:12:32;;;;;;;3.63;1.50;;;;;;;;;;5097075;28;20087;-87
2022/08/21 09:15:04;;;;;;;4.18;1.33;;;;;;;;;;5114245;27;20063;-87
2022/08/21 09:17:45;;;;;;;;;;;;;;;;;;5097886;28;20027;-86
2022/08/21 09:20:27;;;;;;;2.85;1.30;;;;;;;;;;5097055;28;19949;-87
2022/08/21 09:23:05;;;;;;;;;;;;;;;;;;5081066;28;20027;-87
2022/08/21 09:25:34;;;;;;;3.45;1.00;;;;;;;;;;5096981;28;19915;-87
2022/08/21 09:27:59;;;;;;;4.78;1.13;;;;;;;;;;5080540;28;20079;-87
2022/08/21 09:30:30;;;;;;;4.88;1.20;;;;;;;;;;5080159;27;20039;-87
2022/08/21 09:32:56;;;;;;;4.43;1.13;;;;;;;;;;5084160;27;20033;-87
2022/08/21 09:35:22;;;;;;;2.08;0.93;;;;;;;;;;5083847;27;20508;-86
2022/08/21 09:37:58;;;;;;;4.28;1.42;;;;;;;;;;5083574;27;20027;-87
2022/08/21 09:40:40;;;;;;;2.65;0.95;;;;;;;;;;5083109;27;20058;-87
2022/08/21 09:43:19;;;;;;;4.60;1.00;;;;;;;;;;5117849;27;20102;-87
2022/08/21 09:45:45;;;;;;;4.63;1.10;;;;;;;;;;5083854;27;20065;-87
2022/08/21 09:48:21;;;;;;;3.08;1.00;;;;;;;;;;5100541;27;20066;-87
2022/08/21 09:50:47;;;;;;;5.03;1.30;;;;;;;;;;5101567;27;20039;-87
2022/08/21 09:53:29;;;;;;;3.05;1.40;;;;;;;;;;5083428;27;20035;-87
2022/08/21 09:58:49;;;;;;;4.40;1.10;;;;;;;;;;5102519;27;20038;-87
2022/08/21 10:01:22;;;;;;;3.83;1.10;;;;;;;;;;5100126;27;20039;-87
2022/08/21 10:03:47;;;;;;;4.75;1.30;;;;;;;;;;5100515;27;20039;-87
2022/08/21 10:06:25;;;;;;;3.53;1.10;;;;;;;;;;5083521;27;20485;-87
2022/08/21 10:08:50;;;;;;;2.50;0.93;;;;;;;;;;5082749;27;20023;-87
2022/08/21 10:11:16;;;;;;;3.20;1.15;;;;;;;;;;5083070;27;20042;-87
2022/08/21 10:13:48;;;;;;;3.33;0.82;;;;;;;;;;5099259;27;20078;-87
2022/08/21 10:16:21;;;;;;;4.28;1.27;;;;;;;;;;5083082;27;20084;-88
2022/08/21 10:19:08;;;;;;;3.53;0.90;;;;;;;;;;5083443;27;20035;-87
2022/08/21 10:22:21;;;;;;;2.95;1.35;;;;;;;;;;5102595;27;20023;-87
2022/08/21 10:25:06;;;;;;;2.88;0.98;;;;;;;;;;5053860;27;20047;-88
2022/08/21 10:27:39;;;;;;;3.90;1.00;;;;;;;;;;5083077;27;20060;-87
2022/08/21 10:30:10;;;;;;;4.97;1.30;;;;;;;;;;5082723;27;20035;-87
2022/08/21 10:33:08;;;;;;;2.95;1.02;;;;;;;;;;5082801;27;20508;-87
2022/08/21 10:35:39;;;;;;;3.28;0.70;;;;;;;;;;5098794;27;20061;-87
2022/08/21 10:38:35;;;;;;;2.83;1.20;;;;;;;;;;5082485;27;20504;-88
2022/08/21 10:41:25;;;;;;;5.82;1.40;;;;;;;;;;5116611;27;20276;-87
2022/08/21 10:44:23;;;;;;;3.28;0.95;;;;;;;;;;5101981;27;20057;-88
2022/08/21 10:47:21;;;;;;;2.83;0.82;;;;;;;;;;5045853;27;20093;-88
2022/08/21 10:50:28;;;;;;;3.25;0.98;;;;;;;;;;5101120;27;20089;-88
2022/08/21 10:52:57;;;;;;;2.55;0.75;;;;;;;;;;5070797;27;20497;-87
2022/08/21 10:55:30;;;;;;;3.28;0.65;;;;;;;;;;5099438;27;20065;-88
2022/08/21 10:58:30;;;;;;;2.38;0.93;;;;;;;;;;5087508;27;20031;-88
2022/08/21 11:01:24;;;;;;;2.63;0.80;;;;;;;;;;5082560;27;20520;-88
2022/08/21 11:04:08;;;;;;;3.55;1.02;;;;;;;;;;5083130;27;20023;-88
2022/08/21 11:06:34;;;;;;;2.38;0.90;;;;;;;;;;5116079;27;20457;-87
2022/08/21 11:09:12;;;;;;;3.90;0.95;;;;;;;;;;5081939;27;20033;-88
2022/08/21 11:12:01;;;;;;;1.85;0.77;;;;;;;;;;5082340;27;20035;-87
2022/08/21 11:14:51;;;;;;;3.05;0.98;;;;;;;;;;5083027;27;20512;-87
2022/08/21 11:17:34;;;;;;;1.45;0.52;;;;;;;;;;5081921;27;20027;-87
2022/08/21 11:20:05;;;;;;;1.92;0.70;;;;;;;;;;5115390;27;20031;-87
2022/08/21 11:22:45;;;;;;;2.97;0.80;;;;;;;;;;5065172;27;20168;-87
2022/08/21 11:25:20;;;;;;;2.85;0.77;;;;;;;;;;5082579;27;20110;-87
2022/08/21 11:27:50;;;;;;;2.63;0.60;;;;;;;;;;5081396;27;20039;-88
2022/08/21 11:30:17;;;;;;;1.83;0.68;;;;;;;;;;5098341;27;20027;-87
2022/08/21 11:33:02;;;;;;;2.55;0.65;;;;;;;;;;5065124;27;20062;-87
2022/08/21 11:35:43;;;;;;;2.25;0.70;;;;;;;;;;5081471;27;20114;-87
2022/08/21 11:38:12;;;;;;;3.28;0.85;;;;;;;;;;5081665;27;20065;-87
2022/08/21 11:40:59;;;;;;;3.03;0.85;;;;;;;;;;5098145;27;20038;-86
2022/08/21 11:43:46;;;;;;;3.42;1.20;;;;;;;;;;5115028;27;20042;-87
2022/08/21 11:46:17;;;;;;;2.92;0.93;;;;;;;;;;5081394;27;20031;-87
2022/08/21 11:48:55;;;;;;;2.70;0.82;;;;;;;;;;5082523;27;20461;-90
2022/08/21 11:51:28;;;;;;;1.92;0.60;;;;;;;;;;5098816;27;20430;-88
2022/08/21 11:54:11;;;;;;;3.80;0.80;;;;;;;;;;5081188;27;20066;-87
2022/08/21 11:56:42;;;;;;;4.82;1.23;;;;;;;;;;5081676;27;20035;-86
2022/08/21 11:59:20;;;;;;;4.72;1.67;;;;;;;;;;5064496;27;20035;-86
2022/08/21 12:01:46;;;;;;;6.88;1.45;;;;;;;;;;5081328;27;20031;-86
2022/08/21 12:04:26;;;;;;;4.25;1.17;;;;;;;;;;5097799;27;20473;-86
2022/08/21 12:06:52;;;;;;;4.60;1.40;;;;;;;;;;5080602;27;20027;-86
2022/08/21 12:09:23;;;;;;;5.50;1.20;;;;;;;;;;5064363;27;20035;-86
2022/08/21 12:12:00;;;;;;;4.68;1.27;;;;;;;;;;5097563;27;20027;-87
2022/08/21 12:14:37;;;;;;;6.00;1.33;;;;;;;;;;5065134;27;20031;-86
2022/08/21 12:17:07;;;;;;;4.95;1.20;;;;;;;;;;5081924;27;20076;-86
2022/08/21 12:19:32;;;;;;;5.85;1.38;;;;;;;;;;5097116;28;20035;-87
2022/08/21 12:22:01;;;;;;;7.32;1.05;;;;;;;;;;5080348;28;20084;-86
2022/08/21 12:24:26;;;;;;;5.30;1.30;;;;;;;;;;5096882;28;20036;-85
2022/08/21 12:26:53;;;;;;;7.93;1.27;;;;;;;;;;5113611;28;20035;-85
2022/08/21 12:29:23;;;;;;;5.03;1.42;;;;;;;;;;5080351;28;20027;-86
2022/08/21 12:32:19;;;;;;;3.10;1.10;;;;;;;;;;5080477;28;20056;-83
2022/08/21 12:34:57;;;;;;;3.92;1.52;;;;;;;;;;5099089;27;20043;-85
2022/08/21 12:37:44;;;;;;;10.18;3.88;;;;;;;;;;5081640;28;20059;-84
2022/08/21 12:40:16;;;;;;;7.53;2.50;;;;;;;;;;5063767;28;20039;-86
2022/08/21 12:42:45;;;;;;;5.85;1.83;;;;;;;;;;5096897;28;20059;-85
2022/08/21 12:45:22;;;;;;;7.13;1.63;;;;;;;;;;5063442;28;20550;-85
2022/08/21 12:48:01;;;;;;;4.50;1.55;;;;;;;;;;5080892;28;20031;-85
2022/08/21 12:50:56;;;;;;;5.43;1.33;;;;;;;;;;5079829;28;20967;-84
2022/08/21 12:53:31;;;;;;;7.03;1.48;;;;;;;;;;5113694;28;20040;-84
2022/08/21 12:56:01;;;;;;;6.82;1.45;;;;;;;;;;5079337;28;20039;-84
2022/08/21 12:58:26;;;;;;;5.55;1.38;;;;;;;;;;5080848;28;20024;-84
2022/08/21 13:01:02;;;;;;;4.18;1.20;;;;;;;;;;5096271;28;20050;-84
2022/08/21 13:03:28;;;;;;;4.82;1.25;;;;;;;;;;5080510;28;20031;-84
2022/08/21 13:05:54;;;;;;;5.85;1.50;;;;;;;;;;5080235;27;20539;-84
2022/08/21 13:08:23;;;;;;;3.30;1.67;;;;;;;;;;5101699;27;20046;-85
2022/08/21 13:10:49;;;;;;;3.30;0.98;;;;;;;;;;5084327;27;20035;-84
2022/08/21 13:13:21;;;;;;;4.72;0.98;;;;;;;;;;5100984;27;20531;-85
2022/08/21 13:15:57;;;;;;;8.10;1.90;;;;;;;;;;5100805;27;20042;-84
2022/08/21 13:18:25;;;;;;;5.50;1.13;;;;;;;;;;5112260;27;20049;-84
2022/08/21 13:20:50;;;;;;;8.07;1.13;;;;;;;;;;5083514;27;20066;-84
2022/08/21 13:23:27;;;;;;;6.10;1.70;;;;;;;;;;5083211;27;20078;-83
2022/08/21 13:25:54;;;;;;;10.07;1.60;;;;;;;;;;5083310;27;20126;-84
2022/08/21 13:28:20;;;;;;;7.25;1.33;;;;;;;;;;5098965;27;20031;-85
2022/08/21 13:30:51;;;;;;;6.15;1.48;;;;;;;;;;5099991;27;20489;-85
2022/08/21 13:33:21;;;;;;;11.00;1.45;;;;;;;;;;5116768;27;20032;-83
2022/08/21 13:35:47;;;;;;;5.50;1.15;;;;;;;;;;5120125;27;20033;-83
2022/08/21 13:38:13;;;;;;;6.85;1.73;;;;;;;;;;5118205;27;20031;-84
2022/08/21 13:40:58;;;;;;;6.65;1.70;;;;;;;;;;5083089;27;20054;-85
2022/08/21 13:43:30;;;;;;;6.13;1.63;;;;;;;;;;5082927;27;20031;-84
2022/08/21 13:45:58;;;;;;;6.15;1.30;;;;;;;;;;5083442;27;20045;-83
2022/08/21 13:48:26;;;;;;;5.50;1.50;;;;;;;;;;5083614;27;20038;-85
2022/08/21 13:50:51;;;;;;;5.68;1.13;;;;;;;;;;5100289;27;20045;-84
2022/08/21 13:53:28;;;;;;;5.25;1.20;;;;;;;;;;5066203;27;20046;-85
2022/08/21 13:55:54;;;;;;;5.40;0.98;;;;;;;;;;5100003;27;20023;-84
2022/08/21 13:58:27;;;;;;;4.88;1.10;;;;;;;;;;5082660;27;20074;-84
2022/08/21 14:00:53;;;;;;;5.97;1.33;;;;;;;;;;5082849;27;20072;-86
2022/08/21 14:03:38;;;;;;;4.82;0.95;;;;;;;;;;5082922;27;20066;-83
2022/08/21 14:06:31;;;;;;;6.13;1.30;;;;;;;;;;5083641;27;20039;-83
2022/08/21 14:09:00;;;;;;;5.63;1.70;;;;;;;;;;5108710;27;20103;-83
2022/08/21 14:11:26;;;;;;;5.40;1.23;;;;;;;;;;5083170;27;20035;-84
2022/08/21 14:14:00;;;;;;;6.80;1.08;;;;;;;;;;5099523;27;20489;-84
2022/08/21 14:16:41;;;;;;;7.13;1.52;;;;;;;;;;5082757;27;20106;-84
2022/08/21 14:19:27;;;;;;;5.75;1.30;;;;;;;;;;5101442;27;20031;-84
2022/08/21 14:21:54;;;;;;;5.13;1.20;;;;;;;;;;5082785;27;20151;-85
2022/08/21 14:24:23;;;;;;;5.72;1.30;;;;;;;;;;5082653;27;20043;-84
2022/08/21 14:27:05;;;;;;;5.18;1.45;;;;;;;;;;5115999;27;20035;-84
2022/08/21 14:29:36;;;;;;;5.13;1.20;;;;;;;;;;5083198;27;20061;-84
2022/08/21 14:32:10;;;;;;;5.55;1.48;;;;;;;;;;5082871;27;20031;-84
2022/08/21 14:34:35;;;;;;;6.63;1.30;;;;;;;;;;5082304;27;20521;-84
2022/08/21 14:37:01;;;;;;;5.88;1.33;;;;;;;;;;5082199;27;20126;-82
2022/08/21 14:39:26;;;;;;;7.25;1.35;;;;;;;;;;5098874;27;20040;-81
2022/08/21 14:41:52;;;;;;;4.53;1.15;;;;;;;;;;5099021;27;20468;-81
2022/08/21 14:44:17;;;;;;;6.05;1.20;;;;;;;;;;5081470;27;20039;-81
2022/08/21 14:46:43;;;;;;;5.82;1.55;;;;;;;;;;5099198;27;20023;-81
2022/08/21 14:49:09;;;;;;;6.40;1.35;;;;;;;;;;5082080;27;20027;-82
2022/08/21 14:51:35;;;;;;;6.45;1.80;;;;;;;;;;5082246;27;20404;-81
2022/08/21 14:54:00;;;;;;;8.10;1.52;;;;;;;;;;5081481;27;20051;-81
2022/08/21 14:56:26;;;;;;;5.93;1.50;;;;;;;;;;5098693;27;20393;-81
2022/08/21 14:58:52;;;;;;;11.93;2.05;;;;;;;;;;5080846;27;20084;-81
2022/08/21 15:01:18;;;;;;;5.72;1.60;;;;;;;;;;5081920;27;20054;-81
2022/08/21 15:03:45;;;;;;;6.43;1.40;;;;;;;;;;5081740;27;20038;-84
2022/08/21 15:06:12;;;;;;;5.70;1.35;;;;;;;;;;5082099;27;20034;-83
2022/08/21 15:08:37;;;;;;;5.97;1.85;;;;;;;;;;5081467;27;20110;-85
2022/08/21 15:11:04;;;;;;;4.85;1.27;;;;;;;;;;5081710;27;20035;-85
2022/08/21 15:13:31;;;;;;;5.75;1.63;;;;;;;;;;5081612;27;20028;-85
2022/08/21 15:15:57;;;;;;;20.65;16.23;;;;;;;;;;5081911;27;20023;-85
2022/08/21 15:18:26;;;;;;;9.80;5.88;;;;;;;;;;5081310;27;20027;-84
2022/08/21 15:20:52;;;;;;;12.02;5.28;;;;;;;;;;5098307;27;20039;-84
2022/08/21 15:23:18;;;;;;;6.55;3.15;;;;;;;;;;5097729;27;20047;-83
2022/08/21 15:25:44;;;;;;;10.02;7.22;;;;;;;;;;5081320;27;20068;-83
2022/08/21 15:28:10;;;;;;;6.38;1.80;;;;;;;;;;5080428;27;20053;-83
2022/08/21 15:30:36;;;;;;;6.63;2.08;;;;;;;;;;5096821;27;20519;-83
2022/08/21 15:33:02;;;;;;;5.97;1.48;;;;;;;;;;5096358;27;20457;-82
2022/08/21 15:35:27;;;;;;;6.10;1.58;;;;;;;;;;5084203;27;20035;-83
2022/08/21 15:37:52;;;;;;;4.90;1.88;;;;;;;;;;5084218;27;20030;-84
2022/08/21 15:40:18;;;;;;;4.15;1.58;;;;;;;;;;5100779;27;20035;-82
2022/08/21 15:42:43;;;;;;;5.40;1.20;;;;;;;;;;5082906;27;20085;-83
2022/08/21 15:45:11;;;;;;;7.53;1.83;;;;;;;;;;5082665;27;20751;-83